createdAt,value
2022-09-13T00:00:25.863Z,21.18
2022-09-13T00:02:52.315Z,21.16
2022-09-13T00:05:18.766Z,21.15
2022-09-13T00:07:45.226Z,21.16
2022-09-13T00:10:12.258Z,21.15
2022-09-13T00:12:38.719Z,21.14
2022-09-13T00:15:05.683Z,21.13
2022-09-13T00:17:32.222Z,21.10
2022-09-13T00:19:58.691Z,21.09
2022-09-13T00:22:25.140Z,21.08
2022-09-13T00:24:51.596Z,21.08
2022-09-13T00:27:18.044Z,21.07
2022-09-13T00:29:44.486Z,21.04
2022-09-13T00:32:10.934Z,21.04
2022-09-13T00:34:37.416Z,21.02
2022-09-13T00:37:03.956Z,21.05
2022-09-13T00:39:30.435Z,21.07
2022-09-13T00:41:56.910Z,21.05
2022-09-13T00:44:47.127Z,21.03
2022-09-13T00:47:14.704Z,21.03
2022-09-13T00:49:41.172Z,21.05
2022-09-13T00:52:10.376Z,21.03
2022-09-13T00:54:42.409Z,21.02
2022-09-13T00:57:08.909Z,21.02
2022-09-13T00:59:42.952Z,20.98
2022-09-13T01:02:09.308Z,21.00
2022-09-13T01:04:35.862Z,20.96
2022-09-13T01:07:04.767Z,20.95
2022-09-13T01:09:32.907Z,20.95
2022-09-13T01:12:15.230Z,20.92
2022-09-13T01:14:41.684Z,20.92
2022-09-13T01:17:08.245Z,20.94
2022-09-13T01:19:35.134Z,20.93
2022-09-13T01:22:39.615Z,20.90
2022-09-13T01:25:05.897Z,20.91
2022-09-13T01:27:44.344Z,20.91
2022-09-13T01:30:18.709Z,20.90
2022-09-13T01:33:01.143Z,20.91
2022-09-13T01:35:42.592Z,20.89
2022-09-13T01:38:26.913Z,20.90
2022-09-13T01:41:20.042Z,20.91
2022-09-13T01:43:56.153Z,20.92
2022-09-13T01:46:49.812Z,20.93
2022-09-13T01:49:30.692Z,20.93
2022-09-13T01:52:06.579Z,20.92
2022-09-13T01:54:39.800Z,20.91
2022-09-13T01:57:30.632Z,20.90
2022-09-13T02:00:01.243Z,20.87
2022-09-13T02:02:36.848Z,20.87
2022-09-13T02:05:25.041Z,20.86
2022-09-13T02:08:33.338Z,20.86
2022-09-13T02:11:17.300Z,20.86
2022-09-13T02:13:48.011Z,20.85
2022-09-13T02:16:36.492Z,20.86
2022-09-13T02:19:07.399Z,20.85
2022-09-13T02:21:38.391Z,20.86
2022-09-13T02:24:11.167Z,20.85
2022-09-13T02:26:38.124Z,20.85
2022-09-13T02:29:10.955Z,20.86
2022-09-13T02:32:20.836Z,20.84
2022-09-13T02:34:51.660Z,20.86
2022-09-13T02:37:18.189Z,20.86
2022-09-13T02:39:47.567Z,20.87
2022-09-13T02:42:21.667Z,20.86
2022-09-13T02:44:49.828Z,20.89
2022-09-13T02:47:54.075Z,20.87
2022-09-13T02:50:32.675Z,20.88
2022-09-13T02:53:26.235Z,20.86
2022-09-13T02:56:15.779Z,20.83
2022-09-13T02:59:04.022Z,20.86
2022-09-13T03:01:30.972Z,20.89
2022-09-13T03:03:57.636Z,20.90
2022-09-13T03:06:24.808Z,20.92
2022-09-13T03:08:52.190Z,20.91
2022-09-13T03:11:38.327Z,20.91
2022-09-13T03:14:16.721Z,20.92
2022-09-13T03:17:01.796Z,20.93
2022-09-13T03:19:50.955Z,20.92
2022-09-13T03:22:51.415Z,20.89
2022-09-13T03:25:30.153Z,20.87
2022-09-13T03:28:23.261Z,20.84
2022-09-13T03:30:51.852Z,20.86
2022-09-13T03:33:31.242Z,20.86
2022-09-13T03:36:09.584Z,20.86
2022-09-13T03:38:39.368Z,20.88
2022-09-13T03:41:10.741Z,20.89
2022-09-13T03:43:41.575Z,20.87
2022-09-13T03:46:11.319Z,20.88
2022-09-13T03:48:38.751Z,20.86
2022-09-13T03:51:05.990Z,20.85
2022-09-13T03:53:32.450Z,20.85
2022-09-13T03:55:58.902Z,20.85
2022-09-13T03:58:25.752Z,20.84
2022-09-13T04:00:53.183Z,20.85
2022-09-13T04:03:19.767Z,20.83
2022-09-13T04:05:46.544Z,20.82
2022-09-13T04:08:13.031Z,20.82
2022-09-13T04:10:40.672Z,20.79
2022-09-13T04:13:07.141Z,20.79
2022-09-13T04:15:33.585Z,20.80
2022-09-13T04:18:00.795Z,20.76
2022-09-13T04:20:27.236Z,20.81
2022-09-13T04:22:54.305Z,20.78
2022-09-13T04:25:21.298Z,20.79
2022-09-13T04:27:48.284Z,20.77
2022-09-13T04:30:15.138Z,20.85
2022-09-13T04:32:44.770Z,20.84
2022-09-13T04:35:11.717Z,20.86
2022-09-13T04:37:38.954Z,20.88
2022-09-13T04:40:07.631Z,20.87
2022-09-13T04:42:34.397Z,20.88
2022-09-13T04:45:00.859Z,20.91
2022-09-13T04:47:27.327Z,20.95
2022-09-13T04:49:53.793Z,20.95
2022-09-13T04:52:20.284Z,20.97
2022-09-13T04:54:47.727Z,20.96
2022-09-13T04:57:15.052Z,20.94
2022-09-13T04:59:41.494Z,20.97
2022-09-13T05:02:07.986Z,20.97
2022-09-13T05:04:34.462Z,20.93
2022-09-13T05:07:00.902Z,20.94
2022-09-13T05:09:27.461Z,20.94
2022-09-13T05:11:54.191Z,20.91
2022-09-13T05:14:20.647Z,20.87
2022-09-13T05:16:47.085Z,20.84
2022-09-13T05:19:13.553Z,20.83
2022-09-13T05:21:40.339Z,20.81
2022-09-13T05:24:06.849Z,20.80
2022-09-13T05:26:33.461Z,20.79
2022-09-13T05:29:00.205Z,20.80
2022-09-13T05:31:44.802Z,20.80
2022-09-13T05:34:12.675Z,20.80
2022-09-13T05:36:39.198Z,20.80
2022-09-13T05:39:29.639Z,20.80
2022-09-13T05:41:52.222Z,20.80
2022-09-13T05:44:18.689Z,20.81
2022-09-13T05:46:48.448Z,20.81
2022-09-13T05:49:14.959Z,20.80
2022-09-13T05:51:41.404Z,20.79
2022-09-13T05:54:08.310Z,20.80
2022-09-13T05:56:34.767Z,20.82
2022-09-13T05:59:01.228Z,20.83
2022-09-13T06:01:28.282Z,20.89
2022-09-13T06:03:56.400Z,20.92
2022-09-13T06:06:23.252Z,20.94
2022-09-13T06:08:56.211Z,20.89
2022-09-13T06:11:23.082Z,20.92
2022-09-13T06:13:49.567Z,21.00
2022-09-13T06:16:16.955Z,21.03
2022-09-13T06:18:43.621Z,21.03
2022-09-13T06:21:18.190Z,21.03
2022-09-13T06:23:45.922Z,21.06
2022-09-13T06:26:13.813Z,21.05
2022-09-13T06:28:40.332Z,21.06
2022-09-13T06:31:07.523Z,21.09
2022-09-13T06:33:34.710Z,21.16
2022-09-13T06:36:02.480Z,21.14
2022-09-13T06:38:29.275Z,21.16
2022-09-13T06:41:06.884Z,21.19
2022-09-13T06:43:33.824Z,21.22
2022-09-13T06:46:07.699Z,21.24
2022-09-13T06:48:35.291Z,21.22
2022-09-13T06:51:02.642Z,21.17
2022-09-13T06:53:29.148Z,21.12
2022-09-13T06:56:15.018Z,21.13
2022-09-13T06:58:42.654Z,21.16
2022-09-13T07:01:20.064Z,21.14
2022-09-13T07:03:51.131Z,21.09
2022-09-13T07:06:22.654Z,21.19
2022-09-13T07:08:50.279Z,21.38
2022-09-13T07:11:18.361Z,21.48
2022-09-13T07:13:51.660Z,21.49
2022-09-13T07:16:18.427Z,21.64
2022-09-13T07:18:45.681Z,21.70
2022-09-13T07:21:12.235Z,21.78
2022-09-13T07:23:39.428Z,21.72
2022-09-13T07:26:06.580Z,21.45
2022-09-13T07:28:35.635Z,21.42
2022-09-13T07:31:22.597Z,21.42
2022-09-13T07:33:53.783Z,21.42
2022-09-13T07:36:20.220Z,21.40
2022-09-13T07:38:46.775Z,21.47
2022-09-13T07:41:17.782Z,21.29
2022-09-13T07:43:44.578Z,21.28
2022-09-13T07:46:12.536Z,21.33
2022-09-13T07:48:40.555Z,21.39
2022-09-13T07:51:14.486Z,21.52
2022-09-13T07:53:41.896Z,21.57
2022-09-13T07:56:15.940Z,21.66
2022-09-13T07:58:42.721Z,21.66
2022-09-13T08:01:22.471Z,21.65
2022-09-13T08:03:59.454Z,21.63
2022-09-13T08:06:29.838Z,21.67
2022-09-13T08:08:56.395Z,21.70
2022-09-13T08:11:25.066Z,21.67
2022-09-13T08:13:51.831Z,21.67
2022-09-13T08:16:19.448Z,21.65
2022-09-13T08:18:46.830Z,21.62
2022-09-13T08:21:13.338Z,21.61
2022-09-13T08:23:39.974Z,21.60
2022-09-13T08:26:07.926Z,21.60
2022-09-13T08:28:38.339Z,21.61
2022-09-13T08:31:08.823Z,21.65
2022-09-13T08:33:35.397Z,21.64
2022-09-13T08:36:02.363Z,21.66
2022-09-13T08:38:28.997Z,21.67
2022-09-13T08:41:01.376Z,21.68
2022-09-13T08:43:31.854Z,21.66
2022-09-13T08:46:17.205Z,21.65
2022-09-13T08:48:44.578Z,21.63
2022-09-13T08:51:40.856Z,21.63
2022-09-13T08:54:11.194Z,21.62
2022-09-13T08:57:02.485Z,21.61
2022-09-13T08:59:33.493Z,21.60
2022-09-13T09:02:12.008Z,21.60
2022-09-13T09:04:52.913Z,21.60
2022-09-13T09:07:21.414Z,21.57
2022-09-13T09:09:50.368Z,21.57
2022-09-13T09:12:20.975Z,21.54
2022-09-13T09:15:02.592Z,21.55
2022-09-13T09:17:34.372Z,21.51
2022-09-13T09:20:28.417Z,21.54
2022-09-13T09:22:55.192Z,21.51
2022-09-13T09:25:23.329Z,21.50
2022-09-13T09:27:51.155Z,21.50
2022-09-13T09:30:17.638Z,21.48
2022-09-13T09:33:13.687Z,21.47
2022-09-13T09:35:56.302Z,21.47
2022-09-13T09:38:33.432Z,21.47
2022-09-13T09:41:00.783Z,21.46
2022-09-13T09:43:30.983Z,21.47
2022-09-13T09:45:58.163Z,21.45
2022-09-13T09:48:29.073Z,21.45
2022-09-13T09:50:58.416Z,21.46
2022-09-13T09:53:37.216Z,21.48
2022-09-13T09:56:03.992Z,21.48
2022-09-13T09:58:39.132Z,21.46
2022-09-13T10:01:10.849Z,21.53
2022-09-13T10:03:37.923Z,21.54
2022-09-13T10:06:15.045Z,21.53
2022-09-13T10:08:42.110Z,21.52
2022-09-13T10:11:08.607Z,21.51
2022-09-13T10:13:35.496Z,21.52
2022-09-13T10:16:03.420Z,21.52
2022-09-13T10:18:43.900Z,21.55
2022-09-13T10:21:17.311Z,21.57
2022-09-13T10:23:44.818Z,21.57
2022-09-13T10:26:14.892Z,21.57
2022-09-13T10:29:00.988Z,21.61
2022-09-13T10:31:32.026Z,21.59
2022-09-13T10:34:00.193Z,21.59
2022-09-13T10:36:51.021Z,21.57
2022-09-13T10:39:18.603Z,21.59
2022-09-13T10:41:50.391Z,21.58
2022-09-13T10:44:41.788Z,21.59
2022-09-13T10:47:11.916Z,21.57
2022-09-13T10:49:46.182Z,21.54
2022-09-13T10:52:35.840Z,21.57
2022-09-13T10:55:18.369Z,21.58
2022-09-13T10:57:48.497Z,21.58
2022-09-13T11:00:17.758Z,21.56
2022-09-13T11:03:32.257Z,21.59
2022-09-13T11:06:12.187Z,21.64
2022-09-13T11:09:05.988Z,21.72
2022-09-13T11:11:54.262Z,21.75
2022-09-13T11:14:47.348Z,21.77
2022-09-13T11:17:35.603Z,21.77
2022-09-13T11:20:20.660Z,21.71
2022-09-13T11:22:54.295Z,21.66
2022-09-13T11:25:26.609Z,21.57
2022-09-13T11:28:17.814Z,21.48
2022-09-13T11:31:10.589Z,21.53
2022-09-13T11:33:58.419Z,21.52
2022-09-13T11:36:49.322Z,21.52
2022-09-13T11:39:38.962Z,21.40
2022-09-13T11:42:09.943Z,21.41
2022-09-13T11:44:43.429Z,21.42
2022-09-13T11:47:27.671Z,21.54
2022-09-13T11:50:09.939Z,21.53
2022-09-13T11:53:01.829Z,21.54
2022-09-13T11:55:30.659Z,21.55
2022-09-13T11:57:58.983Z,21.55
2022-09-13T12:00:37.146Z,21.57
2022-09-13T12:03:12.656Z,21.55
2022-09-13T12:05:50.863Z,21.65
2022-09-13T12:08:35.235Z,21.58
2022-09-13T12:11:20.406Z,21.75
2022-09-13T12:13:49.265Z,21.73
2022-09-13T12:16:25.262Z,21.69
2022-09-13T12:18:57.179Z,21.70
2022-09-13T12:21:25.895Z,21.76
2022-09-13T12:24:24.357Z,21.76
2022-09-13T12:27:28.328Z,21.57
2022-09-13T12:30:03.837Z,21.58
2022-09-13T12:32:30.356Z,21.57
2022-09-13T12:35:06.006Z,21.61
2022-09-13T12:37:44.029Z,21.67
2022-09-13T12:40:42.999Z,21.64
2022-09-13T12:43:22.040Z,21.52
2022-09-13T12:46:03.950Z,21.56
2022-09-13T12:48:53.101Z,21.50
2022-09-13T12:51:56.534Z,21.41
2022-09-13T12:54:48.675Z,21.41
2022-09-13T12:57:17.986Z,21.53
2022-09-13T12:59:56.934Z,21.57
2022-09-13T13:02:39.948Z,21.58
2022-09-13T13:05:28.859Z,21.60
2022-09-13T13:08:00.240Z,21.49
2022-09-13T13:10:33.005Z,21.50
2022-09-13T13:13:32.492Z,21.55
2022-09-13T13:16:01.737Z,21.58
2022-09-13T13:18:30.818Z,21.61
2022-09-13T13:20:57.150Z,21.63
2022-09-13T13:23:36.962Z,21.67
2022-09-13T13:26:26.085Z,21.63
2022-09-13T13:29:11.422Z,21.59
2022-09-13T13:31:38.295Z,21.65
2022-09-13T13:34:11.018Z,21.66
2022-09-13T13:36:40.590Z,21.67
2022-09-13T13:39:13.224Z,21.71
2022-09-13T13:41:43.834Z,21.70
2022-09-13T13:44:17.715Z,21.72
2022-09-13T13:46:44.320Z,21.75
2022-09-13T13:49:29.919Z,21.73
2022-09-13T13:52:15.678Z,21.73
2022-09-13T13:54:42.070Z,21.72
2022-09-13T13:57:20.829Z,21.73
2022-09-13T13:59:47.875Z,21.71
2022-09-13T14:02:14.358Z,21.73
2022-09-13T14:04:48.565Z,21.76
2022-09-13T14:07:45.803Z,21.77
2022-09-13T14:10:19.060Z,21.74
2022-09-13T14:12:49.798Z,21.76
2022-09-13T14:15:26.047Z,21.77
2022-09-13T14:18:20.670Z,21.79
2022-09-13T14:21:00.011Z,21.82
2022-09-13T14:23:27.084Z,21.82
2022-09-13T14:25:55.192Z,21.83
2022-09-13T14:28:21.745Z,21.80
2022-09-13T14:30:48.197Z,21.84
2022-09-13T14:33:32.188Z,21.82
2022-09-13T14:36:15.903Z,21.83
2022-09-13T14:38:51.616Z,21.87
2022-09-13T14:41:22.120Z,21.90
2022-09-13T14:43:49.120Z,21.91
2022-09-13T14:46:27.938Z,21.90
2022-09-13T14:48:56.260Z,21.90
2022-09-13T14:51:30.128Z,21.91
2022-09-13T14:54:03.993Z,21.90
2022-09-13T14:56:41.591Z,21.93
2022-09-13T14:59:17.973Z,21.93
2022-09-13T15:01:44.429Z,21.92
2022-09-13T15:04:10.991Z,21.86
2022-09-13T15:06:38.979Z,21.84
2022-09-13T15:09:11.569Z,21.86
2022-09-13T15:11:43.030Z,21.83
2022-09-13T15:14:12.442Z,21.80
2022-09-13T15:16:59.399Z,21.85
2022-09-13T15:19:31.804Z,21.87
2022-09-13T15:22:05.695Z,21.89
2022-09-13T15:24:33.667Z,21.84
2022-09-13T15:27:05.578Z,21.79
2022-09-13T15:29:35.011Z,21.79
2022-09-13T15:32:05.348Z,21.87
2022-09-13T15:34:31.838Z,21.85
2022-09-13T15:37:14.085Z,21.99
2022-09-13T15:39:51.629Z,21.99
2022-09-13T15:42:18.138Z,21.99
2022-09-13T15:44:44.656Z,22.02
2022-09-13T15:47:15.876Z,22.01
2022-09-13T15:49:42.336Z,22.02
2022-09-13T15:52:09.925Z,22.03
2022-09-13T15:54:41.299Z,22.00
2022-09-13T15:57:21.413Z,22.01
2022-09-13T15:59:47.945Z,22.00
2022-09-13T16:02:25.645Z,21.98
2022-09-13T16:04:52.359Z,21.95
2022-09-13T16:07:18.857Z,21.98
2022-09-13T16:09:45.381Z,21.97
2022-09-13T16:12:11.852Z,21.90
2022-09-13T16:14:38.358Z,21.89
2022-09-13T16:17:12.035Z,21.85
2022-09-13T16:19:38.499Z,21.89
2022-09-13T16:22:09.686Z,21.87
2022-09-13T16:24:38.626Z,21.81
2022-09-13T16:27:05.207Z,21.81
2022-09-13T16:29:31.690Z,21.73
2022-09-13T16:32:01.984Z,21.75
2022-09-13T16:34:28.452Z,21.72
2022-09-13T16:36:54.900Z,21.69
2022-09-13T16:39:21.745Z,21.65
2022-09-13T16:41:48.672Z,21.60
2022-09-13T16:44:15.743Z,21.53
2022-09-13T16:46:42.341Z,21.48
2022-09-13T16:49:11.057Z,21.40
2022-09-13T16:51:37.934Z,21.40
2022-09-13T16:54:04.466Z,21.38
2022-09-13T16:56:30.918Z,21.43
2022-09-13T16:58:57.481Z,21.31
2022-09-13T17:01:25.443Z,21.33
2022-09-13T17:03:54.721Z,21.31
2022-09-13T17:06:22.304Z,21.36
2022-09-13T17:08:50.892Z,21.27
2022-09-13T17:11:18.916Z,21.22
2022-09-13T17:13:45.403Z,21.21
2022-09-13T17:16:24.635Z,21.17
2022-09-13T17:18:51.211Z,21.17
2022-09-13T17:21:17.834Z,21.22
2022-09-13T17:23:44.376Z,21.12
2022-09-13T17:26:11.295Z,21.02
2022-09-13T17:28:38.515Z,21.05
2022-09-13T17:31:05.342Z,21.05
2022-09-13T17:33:31.809Z,21.05
2022-09-13T17:36:02.614Z,21.03
2022-09-13T17:38:29.229Z,21.02
2022-09-13T17:41:03.003Z,20.93
2022-09-13T17:43:29.617Z,21.00
2022-09-13T17:45:56.099Z,20.96
2022-09-13T17:48:22.540Z,20.97
2022-09-13T17:50:49.006Z,20.90
2022-09-13T17:53:15.523Z,20.78
2022-09-13T17:55:48.992Z,20.84
2022-09-13T17:58:15.789Z,20.93
2022-09-13T18:00:42.488Z,20.97
2022-09-13T18:03:09.009Z,21.29
2022-09-13T18:05:35.526Z,21.37
2022-09-13T18:08:02.330Z,21.46
2022-09-13T18:10:49.165Z,21.45
2022-09-13T18:13:15.257Z,21.46
2022-09-13T18:15:41.764Z,21.45
2022-09-13T18:18:08.230Z,21.43
2022-09-13T18:20:38.650Z,21.42
2022-09-13T18:23:08.048Z,21.40
2022-09-13T18:25:34.728Z,21.39
2022-09-13T18:28:01.582Z,21.40
2022-09-13T18:30:28.092Z,21.40
2022-09-13T18:32:54.550Z,21.38
2022-09-13T18:35:21.090Z,21.44
2022-09-13T18:37:47.933Z,21.48
2022-09-13T18:40:15.295Z,21.48
2022-09-13T18:42:45.071Z,21.51
2022-09-13T18:45:11.826Z,21.49
2022-09-13T18:47:38.283Z,21.51
2022-09-13T18:50:05.251Z,21.52
2022-09-13T18:52:31.849Z,21.51
2022-09-13T18:54:58.355Z,21.50
2022-09-13T18:57:24.858Z,21.53
2022-09-13T18:59:51.345Z,21.52
2022-09-13T19:02:17.998Z,21.53
2022-09-13T19:04:44.620Z,21.53
2022-09-13T19:07:11.090Z,21.54
2022-09-13T19:09:37.722Z,21.54
2022-09-13T19:12:05.521Z,21.52
2022-09-13T19:14:32.738Z,21.53
2022-09-13T19:17:02.971Z,21.54
2022-09-13T19:19:30.976Z,21.52
2022-09-13T19:21:57.540Z,21.42
2022-09-13T19:24:24.294Z,21.46
2022-09-13T19:26:51.606Z,21.41
2022-09-13T19:29:19.818Z,21.40
2022-09-13T19:31:50.056Z,21.38
2022-09-13T19:34:17.919Z,21.38
2022-09-13T19:36:44.459Z,21.36
2022-09-13T19:39:11.083Z,21.35
2022-09-13T19:41:37.986Z,21.34
2022-09-13T19:44:04.784Z,21.33
2022-09-13T19:46:38.836Z,21.32
2022-09-13T19:49:05.579Z,21.32
2022-09-13T19:51:33.799Z,21.29
2022-09-13T19:54:00.453Z,21.29
2022-09-13T19:56:28.537Z,21.29
2022-09-13T19:58:55.048Z,21.29
2022-09-13T20:01:26.129Z,21.30
2022-09-13T20:03:54.405Z,21.28
2022-09-13T20:06:21.703Z,21.23
2022-09-13T20:08:48.188Z,21.24
2022-09-13T20:11:16.076Z,21.25
2022-09-13T20:13:42.843Z,21.22
2022-09-13T20:16:16.646Z,21.22
2022-09-13T20:18:43.145Z,21.20
2022-09-13T20:21:09.955Z,21.19
2022-09-13T20:23:38.033Z,21.20
2022-09-13T20:26:04.938Z,21.20
2022-09-13T20:28:31.841Z,21.21
2022-09-13T20:31:00.080Z,21.19
2022-09-13T20:33:27.230Z,21.12
2022-09-13T20:35:53.720Z,21.18
2022-09-13T20:38:20.864Z,21.21
2022-09-13T20:40:47.342Z,21.20
2022-09-13T20:43:14.535Z,21.21
2022-09-13T20:45:41.322Z,21.21
2022-09-13T20:48:07.803Z,21.21
2022-09-13T20:50:34.271Z,21.21
2022-09-13T20:53:01.279Z,21.21
2022-09-13T20:55:27.802Z,21.19
2022-09-13T20:57:54.541Z,21.18
2022-09-13T21:00:21.039Z,21.17
2022-09-13T21:02:48.495Z,21.17
2022-09-13T21:05:15.052Z,21.14
2022-09-13T21:08:00.133Z,21.13
2022-09-13T21:10:26.616Z,21.11
2022-09-13T21:12:53.147Z,21.11
2022-09-13T21:15:19.915Z,21.12
2022-09-13T21:17:47.530Z,21.11
2022-09-13T21:20:14.568Z,21.11
2022-09-13T21:22:41.474Z,21.12
2022-09-13T21:25:08.370Z,21.11
2022-09-13T21:27:34.816Z,21.08
2022-09-13T21:30:01.846Z,21.08
2022-09-13T21:32:28.973Z,21.07
2022-09-13T21:34:55.555Z,21.09
2022-09-13T21:37:22.021Z,21.06
2022-09-13T21:39:48.536Z,21.06
2022-09-13T21:42:15.897Z,21.05
2022-09-13T21:44:42.367Z,21.05
2022-09-13T21:47:08.813Z,21.03
2022-09-13T21:49:35.279Z,21.03
2022-09-13T21:52:01.846Z,21.00
2022-09-13T21:54:28.311Z,21.03
2022-09-13T21:56:54.840Z,21.02
2022-09-13T21:59:22.089Z,21.01
2022-09-13T22:01:51.259Z,21.01
2022-09-13T22:04:22.362Z,21.02
2022-09-13T22:06:51.570Z,21.03
2022-09-13T22:09:18.313Z,21.02
2022-09-13T22:11:45.798Z,21.03
2022-09-13T22:14:13.325Z,21.01
2022-09-13T22:16:40.617Z,20.98
2022-09-13T22:19:09.328Z,20.98
2022-09-13T22:21:38.173Z,20.97
2022-09-13T22:24:04.827Z,20.98
2022-09-13T22:26:33.537Z,20.97
2022-09-13T22:28:59.993Z,20.96
2022-09-13T22:31:31.169Z,20.95
2022-09-13T22:34:00.974Z,20.93
2022-09-13T22:36:27.488Z,20.93
2022-09-13T22:38:55.059Z,20.92
2022-09-13T22:41:31.725Z,20.91
2022-09-13T22:44:01.598Z,20.92
2022-09-13T22:46:30.047Z,20.91
2022-09-13T22:48:56.589Z,20.90
2022-09-13T22:51:23.084Z,20.86
2022-09-13T22:53:50.399Z,20.86
2022-09-13T22:56:27.964Z,20.88
2022-09-13T22:58:55.589Z,20.92
2022-09-13T23:01:22.237Z,20.89
2022-09-13T23:03:48.867Z,20.88
2022-09-13T23:06:18.775Z,20.89
2022-09-13T23:08:45.579Z,20.88
2022-09-13T23:11:19.803Z,20.86
2022-09-13T23:13:46.902Z,20.82
2022-09-13T23:16:20.635Z,20.82
2022-09-13T23:18:47.397Z,20.84
2022-09-13T23:21:14.040Z,20.85
2022-09-13T23:23:40.492Z,20.83
2022-09-13T23:26:09.380Z,20.82
2022-09-13T23:28:36.548Z,20.81
2022-09-13T23:31:18.677Z,20.79
2022-09-13T23:33:46.667Z,20.78
2022-09-13T23:36:13.996Z,20.78
2022-09-13T23:38:40.775Z,20.78
2022-09-13T23:41:07.358Z,20.77
2022-09-13T23:43:34.076Z,20.75
2022-09-13T23:46:00.630Z,20.75
2022-09-13T23:48:27.094Z,20.75
2022-09-13T23:51:07.242Z,20.75
2022-09-13T23:53:34.361Z,20.72
2022-09-13T23:56:00.828Z,20.74
2022-09-13T23:58:27.497Z,20.70
